createdAt,value
2023-05-18T00:02:05.985Z,100926.47
2023-05-18T00:04:35.055Z,100924.38
2023-05-18T00:07:04.873Z,100922.88
2023-05-18T00:09:34.029Z,100932.09
2023-05-18T00:12:01.973Z,100926.69
2023-05-18T00:14:29.591Z,100925.38
2023-05-18T00:16:58.052Z,100927.22
2023-05-18T00:19:25.492Z,100930.88
2023-05-18T00:21:52.894Z,100927.41
2023-05-18T00:24:20.194Z,100935.75
2023-05-18T00:26:48.427Z,100933.13
2023-05-18T00:29:16.163Z,100929.09
2023-05-18T00:31:45.525Z,100933.09
2023-05-18T00:34:13.738Z,100933.47
2023-05-18T00:36:46.607Z,100936.34
2023-05-18T00:39:14.163Z,100928.38
2023-05-18T00:41:41.567Z,100936.69
2023-05-18T00:44:09.059Z,100936.38
2023-05-18T00:46:36.562Z,100928.31
2023-05-18T00:49:04.326Z,100927.88
2023-05-18T00:51:32.651Z,100923.59
2023-05-18T00:54:00.517Z,100926.34
2023-05-18T00:56:28.632Z,100919.03
2023-05-18T00:58:57.418Z,100919.84
2023-05-18T01:01:28.343Z,100927.78
2023-05-18T01:03:57.208Z,100929.41
2023-05-18T01:06:27.466Z,100926.84
2023-05-18T01:08:55.235Z,100926.97
2023-05-18T01:11:30.664Z,100931.28
2023-05-18T01:14:11.577Z,100934.06
2023-05-18T01:16:49.025Z,100928.81
2023-05-18T01:19:24.149Z,100934.53
2023-05-18T01:22:04.364Z,100931.25
2023-05-18T01:24:36.927Z,100933.06
2023-05-18T01:27:06.925Z,100932.94
2023-05-18T01:29:34.815Z,100930.69
2023-05-18T01:32:02.283Z,100946.78
2023-05-18T01:34:29.800Z,100943.47
2023-05-18T01:36:59.953Z,100940.28
2023-05-18T01:39:27.350Z,100941.47
2023-05-18T01:42:03.858Z,100931.81
2023-05-18T01:44:34.226Z,100928.69
2023-05-18T01:47:14.919Z,100930.38
2023-05-18T01:49:54.577Z,100921.50
2023-05-18T01:52:29.130Z,100922.84
2023-05-18T01:54:57.763Z,100931.34
2023-05-18T01:57:27.388Z,100923.84
2023-05-18T01:59:55.533Z,100924.66
2023-05-18T02:02:25.000Z,100922.38
2023-05-18T02:04:52.840Z,100921.84
2023-05-18T02:07:20.288Z,100928.19
2023-05-18T02:09:47.729Z,100926.19
2023-05-18T02:12:15.130Z,100918.16
2023-05-18T02:14:42.468Z,100923.78
2023-05-18T02:17:10.347Z,100917.97
2023-05-18T02:19:38.380Z,100926.41
2023-05-18T02:22:07.098Z,100928.19
2023-05-18T02:24:34.851Z,100927.34
2023-05-18T02:27:07.039Z,100931.69
2023-05-18T02:29:34.359Z,100916.31
2023-05-18T02:32:01.744Z,100930.44
2023-05-18T02:34:33.094Z,100924.03
2023-05-18T02:37:04.027Z,100926.69
2023-05-18T02:39:31.656Z,100924.03
2023-05-18T02:41:59.176Z,100926.34
2023-05-18T02:44:26.806Z,100923.03
2023-05-18T02:46:54.147Z,100929.34
2023-05-18T02:49:21.517Z,100917.16
2023-05-18T02:51:49.008Z,100921.63
2023-05-18T02:54:16.425Z,100923.78
2023-05-18T02:56:45.734Z,100919.03
2023-05-18T02:59:22.565Z,100915.69
2023-05-18T03:01:50.152Z,100914.94
2023-05-18T03:04:17.700Z,100919.09
2023-05-18T03:06:53.127Z,100921.94
2023-05-18T03:09:23.176Z,100920.22
2023-05-18T03:11:53.556Z,100921.91
2023-05-18T03:14:21.329Z,100916.16
2023-05-18T03:16:48.998Z,100922.88
2023-05-18T03:19:17.956Z,100929.25
2023-05-18T03:21:46.067Z,100923.59
2023-05-18T03:24:14.691Z,100928.31
2023-05-18T03:26:44.477Z,100922.56
2023-05-18T03:29:13.661Z,100925.28
2023-05-18T03:31:41.714Z,100929.16
2023-05-18T03:34:10.876Z,100934.47
2023-05-18T03:36:38.612Z,100928.84
2023-05-18T03:39:06.868Z,100930.47
2023-05-18T03:41:34.723Z,100930.78
2023-05-18T03:44:02.451Z,100940.84
2023-05-18T03:46:30.693Z,100930.13
2023-05-18T03:48:58.434Z,100941.56
2023-05-18T03:51:33.696Z,100940.41
2023-05-18T03:54:01.890Z,100947.00
2023-05-18T03:56:31.375Z,100944.41
2023-05-18T03:58:58.844Z,100945.63
2023-05-18T04:01:26.190Z,100947.16
2023-05-18T04:03:56.646Z,100949.75
2023-05-18T04:06:26.437Z,100944.28
2023-05-18T04:08:53.884Z,100946.25
2023-05-18T04:11:22.660Z,100948.03
2023-05-18T04:13:50.992Z,100943.00
2023-05-18T04:16:18.563Z,100960.19
2023-05-18T04:18:46.023Z,100953.53
2023-05-18T04:21:13.462Z,100958.44
2023-05-18T04:23:40.937Z,100962.69
2023-05-18T04:26:09.138Z,100964.16
2023-05-18T04:28:39.606Z,100972.16
2023-05-18T04:31:06.943Z,100963.66
2023-05-18T04:33:34.267Z,100974.03
2023-05-18T04:36:05.112Z,100974.53
2023-05-18T04:38:35.713Z,100978.41
2023-05-18T04:41:07.749Z,100982.81
2023-05-18T04:43:36.740Z,100985.22
2023-05-18T04:46:04.370Z,100984.16
2023-05-18T04:48:33.495Z,100989.31
2023-05-18T04:51:04.984Z,100992.25
2023-05-18T04:53:33.691Z,100994.19
2023-05-18T04:56:01.445Z,100991.41
2023-05-18T04:58:30.512Z,100994.94
2023-05-18T05:00:58.221Z,100994.09
2023-05-18T05:03:25.649Z,100992.91
2023-05-18T05:05:53.104Z,101002.66
2023-05-18T05:08:20.347Z,101001.16
2023-05-18T05:10:47.643Z,101006.66
2023-05-18T05:13:15.616Z,101009.16
2023-05-18T05:15:42.973Z,101010.53
2023-05-18T05:18:10.418Z,101011.38
2023-05-18T05:20:38.076Z,101011.13
2023-05-18T05:23:05.584Z,101015.59
2023-05-18T05:25:33.183Z,101026.47
2023-05-18T05:28:01.904Z,101021.72
2023-05-18T05:30:29.779Z,101022.72
2023-05-18T05:32:57.165Z,101023.44
2023-05-18T05:35:24.921Z,101027.53
2023-05-18T05:37:52.192Z,101029.19
2023-05-18T05:40:20.385Z,101025.59
2023-05-18T05:42:47.924Z,101032.16
2023-05-18T05:45:15.462Z,101032.41
2023-05-18T05:47:51.138Z,101039.41
2023-05-18T05:50:20.634Z,101044.31
2023-05-18T05:52:49.824Z,101040.00
2023-05-18T05:55:18.085Z,101039.75
2023-05-18T05:57:45.403Z,101043.25
2023-05-18T06:00:13.172Z,101045.72
2023-05-18T06:02:51.962Z,101046.25
2023-05-18T06:05:42.051Z,101048.63
2023-05-18T06:08:10.985Z,101048.13
2023-05-18T06:10:39.353Z,101058.69
2023-05-18T06:13:07.232Z,101067.00
2023-05-18T06:16:00.479Z,101058.22
2023-05-18T06:18:27.920Z,101063.81
2023-05-18T06:21:00.636Z,101062.22
2023-05-18T06:23:28.156Z,101063.81
2023-05-18T06:26:04.312Z,101068.81
2023-05-18T06:28:31.595Z,101075.34
2023-05-18T06:31:22.149Z,101066.47
2023-05-18T06:33:51.904Z,101070.03
2023-05-18T06:36:19.204Z,101076.28
2023-05-18T06:38:46.490Z,101082.75
2023-05-18T06:41:13.754Z,101078.56
2023-05-18T06:43:41.363Z,101080.78
2023-05-18T06:46:22.365Z,101075.91
2023-05-18T06:48:53.213Z,101082.91
2023-05-18T06:51:21.121Z,101073.59
2023-05-18T06:53:48.648Z,101067.34
2023-05-18T06:56:16.858Z,101073.44
2023-05-18T06:58:45.607Z,101068.09
2023-05-18T07:01:13.467Z,101070.94
2023-05-18T07:03:41.114Z,101071.06
2023-05-18T07:06:08.625Z,101075.94
2023-05-18T07:08:38.529Z,101076.22
2023-05-18T07:11:05.796Z,101070.34
2023-05-18T07:13:33.173Z,101072.06
2023-05-18T07:16:00.742Z,101065.63
2023-05-18T07:18:28.119Z,101062.63
2023-05-18T07:20:55.372Z,101068.03
2023-05-18T07:23:23.481Z,101057.41
2023-05-18T07:25:51.033Z,101072.03
2023-05-18T07:28:18.358Z,101062.34
2023-05-18T07:30:45.602Z,101060.50
2023-05-18T07:33:12.908Z,101065.63
2023-05-18T07:35:40.208Z,101067.28
2023-05-18T07:38:07.577Z,101065.66
2023-05-18T07:40:34.849Z,101070.41
2023-05-18T07:43:02.221Z,101071.44
2023-05-18T07:45:29.905Z,101070.78
2023-05-18T07:47:57.809Z,101078.75
2023-05-18T07:50:25.116Z,101077.72
2023-05-18T07:52:52.395Z,101069.31
2023-05-18T07:55:19.622Z,101065.19
2023-05-18T07:57:47.342Z,101068.31
2023-05-18T08:00:14.796Z,101073.41
2023-05-18T08:02:43.093Z,101060.22
2023-05-18T08:05:11.040Z,101059.41
2023-05-18T08:07:38.710Z,101059.97
2023-05-18T08:10:06.216Z,101053.78
2023-05-18T08:12:33.402Z,101070.91
2023-05-18T08:15:00.641Z,101072.56
2023-05-18T08:17:27.881Z,101060.19
2023-05-18T08:19:55.441Z,101051.00
2023-05-18T08:22:22.814Z,101052.47
2023-05-18T08:24:50.015Z,101051.88
2023-05-18T08:27:17.292Z,101063.88
2023-05-18T08:29:44.505Z,101067.06
2023-05-18T08:32:12.039Z,101063.63
2023-05-18T08:34:39.452Z,101063.13
2023-05-18T08:37:06.817Z,101059.16
2023-05-18T08:39:34.065Z,101056.13
2023-05-18T08:42:02.921Z,101052.84
2023-05-18T08:44:40.685Z,101047.75
2023-05-18T08:47:09.780Z,101046.72
2023-05-18T08:49:37.233Z,101053.69
2023-05-18T08:52:04.933Z,101052.72
2023-05-18T08:54:33.012Z,101045.16
2023-05-18T08:57:01.053Z,101054.69
2023-05-18T08:59:31.410Z,101048.44
2023-05-18T09:01:59.085Z,101047.56
2023-05-18T09:04:27.323Z,101050.78
2023-05-18T09:06:55.066Z,101040.53
2023-05-18T09:09:24.320Z,101047.31
2023-05-18T09:11:52.022Z,101055.41
2023-05-18T09:14:19.482Z,101046.38
2023-05-18T09:16:46.845Z,101050.94
2023-05-18T09:19:14.360Z,101047.56
2023-05-18T09:21:41.740Z,101045.13
2023-05-18T09:24:09.005Z,101044.22
2023-05-18T09:26:36.939Z,101048.53
2023-05-18T09:29:15.687Z,101051.06
2023-05-18T09:31:43.004Z,101044.34
2023-05-18T09:34:11.758Z,101051.47
2023-05-18T09:36:39.754Z,101059.41
2023-05-18T09:39:08.554Z,101054.38
2023-05-18T09:41:37.530Z,101050.44
2023-05-18T09:44:09.225Z,101065.50
2023-05-18T09:46:38.060Z,101063.56
2023-05-18T09:49:06.710Z,101073.91
2023-05-18T09:51:38.198Z,101065.81
2023-05-18T09:54:08.505Z,101072.81
2023-05-18T09:56:37.435Z,101066.81
2023-05-18T09:59:15.076Z,101072.66
2023-05-18T10:02:01.899Z,101077.84
2023-05-18T10:04:39.585Z,101073.63
2023-05-18T10:07:16.711Z,101065.22
2023-05-18T10:09:45.045Z,101074.44
2023-05-18T10:12:13.619Z,101072.81
2023-05-18T10:14:44.597Z,101059.44
2023-05-18T10:17:15.689Z,101074.25
2023-05-18T10:19:44.513Z,101065.88
2023-05-18T10:22:14.633Z,101068.13
2023-05-18T10:24:43.406Z,101060.50
2023-05-18T10:27:11.205Z,101060.59
2023-05-18T10:29:38.655Z,101063.28
2023-05-18T10:32:07.912Z,101054.72
2023-05-18T10:34:36.324Z,101057.66
2023-05-18T10:37:05.071Z,101050.97
2023-05-18T10:39:34.217Z,101049.50
2023-05-18T10:42:02.403Z,101049.88
2023-05-18T10:44:30.779Z,101049.31
2023-05-18T10:46:58.370Z,101039.72
2023-05-18T10:49:26.217Z,101036.13
2023-05-18T10:51:56.650Z,101039.00
2023-05-18T10:54:24.119Z,101033.94
2023-05-18T10:56:52.402Z,101039.16
2023-05-18T10:59:20.483Z,101035.19
2023-05-18T11:01:48.005Z,101035.47
2023-05-18T11:04:15.322Z,101029.91
2023-05-18T11:06:42.769Z,101037.38
2023-05-18T11:09:22.411Z,101040.56
2023-05-18T11:11:54.168Z,101041.38
2023-05-18T11:14:25.370Z,101027.91
2023-05-18T11:16:52.764Z,101042.50
2023-05-18T11:19:24.633Z,101040.50
2023-05-18T11:21:53.121Z,101040.25
2023-05-18T11:24:26.673Z,101047.91
2023-05-18T11:26:55.173Z,101045.31
2023-05-18T11:29:32.899Z,101040.03
2023-05-18T11:32:04.887Z,101037.25
2023-05-18T11:34:46.185Z,101031.75
2023-05-18T11:37:14.632Z,101030.97
2023-05-18T11:42:23.092Z,101026.56
2023-05-18T11:44:55.783Z,101018.50
2023-05-18T11:47:29.578Z,101015.53
2023-05-18T11:49:57.414Z,101025.97
2023-05-18T11:52:25.466Z,101025.56
2023-05-18T11:54:53.155Z,101027.84
2023-05-18T11:57:21.363Z,101022.28
2023-05-18T11:59:54.647Z,101029.53
2023-05-18T12:02:22.726Z,101031.09
2023-05-18T12:04:56.435Z,101028.19
2023-05-18T12:07:25.400Z,101027.63
2023-05-18T12:09:52.774Z,101029.53
2023-05-18T12:12:20.558Z,101024.78
2023-05-18T12:14:53.576Z,101031.44
2023-05-18T12:17:21.005Z,101025.44
2023-05-18T12:19:49.183Z,101025.19
2023-05-18T12:22:16.992Z,101036.31
2023-05-18T12:24:44.395Z,101033.94
2023-05-18T12:27:12.603Z,101033.53
2023-05-18T12:29:43.194Z,101027.84
2023-05-18T12:49:50.544Z,101007.63
2023-05-18T12:52:21.405Z,101007.72
2023-05-18T12:54:55.553Z,101006.34
2023-05-18T12:57:26.729Z,101006.47
2023-05-18T12:59:55.247Z,101008.94
2023-05-18T13:02:30.464Z,101008.19
2023-05-18T13:05:07.715Z,101005.06
2023-05-18T13:07:41.897Z,101009.41
2023-05-18T13:16:23.095Z,100999.06
2023-05-18T13:18:56.178Z,101003.22
2023-05-18T13:21:23.516Z,101006.00
2023-05-18T13:23:50.741Z,100995.72
2023-05-18T13:26:19.031Z,100990.63
2023-05-18T13:28:46.694Z,100986.31
2023-05-18T13:31:13.965Z,100989.00
2023-05-18T13:33:41.353Z,100987.72
2023-05-18T13:36:08.936Z,100981.19
2023-05-18T13:38:37.499Z,100982.09
2023-05-18T13:41:05.049Z,100984.69
2023-05-18T13:43:35.313Z,100969.31
2023-05-18T13:46:02.682Z,100974.38
2023-05-18T13:48:30.437Z,100969.69
2023-05-18T13:50:57.688Z,100971.41
2023-05-18T13:53:28.526Z,100965.25
2023-05-18T13:55:55.914Z,100968.81
2023-05-18T13:58:23.946Z,100964.69
2023-05-18T14:00:53.945Z,100959.44
2023-05-18T14:03:21.553Z,100960.88
2023-05-18T14:05:49.500Z,100949.91
2023-05-18T14:08:19.987Z,100955.66
2023-05-18T14:10:47.250Z,100953.38
2023-05-18T14:13:15.359Z,100947.72
2023-05-18T14:15:42.763Z,100952.25
2023-05-18T14:18:10.269Z,100938.22
2023-05-18T14:20:38.210Z,100941.91
2023-05-18T14:23:06.538Z,100935.97
2023-05-18T14:25:35.513Z,100938.28
2023-05-18T14:28:02.768Z,100934.28
2023-05-18T14:30:30.159Z,100930.38
2023-05-18T14:32:57.515Z,100931.28
2023-05-18T14:35:24.731Z,100933.59
2023-05-18T14:37:51.877Z,100919.41
2023-05-18T14:40:19.035Z,100931.03
2023-05-18T14:42:46.134Z,100927.63
2023-05-18T14:45:13.574Z,100926.75
2023-05-18T14:47:40.758Z,100928.81
2023-05-18T14:50:08.154Z,100934.72
2023-05-18T14:52:35.852Z,100922.91
2023-05-18T14:55:03.105Z,100922.19
2023-05-18T14:57:30.293Z,100932.38
2023-05-18T14:59:58.484Z,100932.47
2023-05-18T15:02:25.842Z,100934.16
2023-05-18T15:04:53.037Z,100925.28
2023-05-18T15:07:20.258Z,100930.88
2023-05-18T15:09:47.535Z,100922.91
2023-05-18T15:12:14.807Z,100933.28
2023-05-18T15:14:42.231Z,100929.00
2023-05-18T15:17:09.441Z,100933.13
2023-05-18T15:19:36.781Z,100928.31
2023-05-18T15:22:04.148Z,100928.63
2023-05-18T15:24:31.375Z,100927.66
2023-05-18T15:27:01.361Z,100936.84
2023-05-18T15:29:28.491Z,100936.53
2023-05-18T15:31:56.104Z,100938.03
2023-05-18T15:34:23.300Z,100939.13
2023-05-18T15:36:50.525Z,100929.69
2023-05-18T15:39:17.763Z,100941.69
2023-05-18T15:41:44.871Z,100932.44
2023-05-18T15:44:11.976Z,100942.38
2023-05-18T15:46:39.200Z,100928.09
2023-05-18T15:49:06.330Z,100925.66
2023-05-18T15:51:33.468Z,100917.75
2023-05-18T15:54:01.736Z,100920.94
2023-05-18T15:56:29.052Z,100928.03
2023-05-18T15:58:56.240Z,100918.31
2023-05-18T16:01:23.505Z,100918.25
2023-05-18T16:03:51.034Z,100917.00
2023-05-18T16:06:18.608Z,100918.47
2023-05-18T16:08:48.785Z,100925.09
2023-05-18T16:11:15.888Z,100918.84
2023-05-18T16:13:42.990Z,100911.41
2023-05-18T16:16:14.078Z,100923.50
2023-05-18T16:18:41.420Z,100927.63
2023-05-18T16:21:09.425Z,100925.91
2023-05-18T16:23:36.729Z,100920.38
2023-05-18T16:26:05.549Z,100922.44
2023-05-18T16:28:34.162Z,100923.94
2023-05-18T16:31:04.984Z,100926.00
2023-05-18T16:33:32.738Z,100923.28
2023-05-18T16:36:00.004Z,100936.78
2023-05-18T16:38:27.543Z,100932.66
2023-05-18T16:40:55.050Z,100936.97
2023-05-18T16:43:22.432Z,100939.38
2023-05-18T16:45:49.894Z,100938.78
2023-05-18T16:48:17.284Z,100947.91
2023-05-18T16:50:44.498Z,100940.88
2023-05-18T16:53:13.643Z,100952.84
2023-05-18T16:55:40.874Z,100950.47
2023-05-18T16:58:08.311Z,100955.75
2023-05-18T17:00:35.765Z,100944.19
2023-05-18T17:03:03.449Z,100944.56
2023-05-18T17:05:30.816Z,100953.97
2023-05-18T17:07:59.257Z,100946.16
2023-05-18T17:10:26.558Z,100951.38
2023-05-18T17:12:53.805Z,100952.34
2023-05-18T17:15:21.067Z,100956.72
2023-05-18T17:17:48.494Z,100954.28
2023-05-18T17:20:16.964Z,100967.31
2023-05-18T17:22:44.167Z,100963.75
2023-05-18T17:25:11.363Z,100963.16
2023-05-18T17:27:38.623Z,100965.16
2023-05-18T17:30:07.281Z,100963.09
2023-05-18T17:32:34.633Z,100961.41
2023-05-18T17:35:02.180Z,100968.25
2023-05-18T17:37:29.399Z,100960.94
2023-05-18T17:40:20.163Z,100965.91
2023-05-18T17:42:47.429Z,100964.41
2023-05-18T17:45:14.626Z,100967.13
2023-05-18T17:48:08.252Z,100968.91
2023-05-18T17:50:37.904Z,100965.75
2023-05-18T17:53:07.329Z,100960.44
2023-05-18T17:55:34.649Z,100969.81
2023-05-18T17:58:02.615Z,100965.03
2023-05-18T18:00:30.387Z,100968.25
2023-05-18T18:02:58.010Z,100971.47
2023-05-18T18:05:26.652Z,100966.16
2023-05-18T18:07:54.487Z,100970.56
2023-05-18T18:10:23.026Z,100970.69
2023-05-18T18:12:50.592Z,100974.00
2023-05-18T18:15:19.159Z,100978.97
2023-05-18T18:17:46.578Z,100980.41
2023-05-18T18:20:14.052Z,100979.09
2023-05-18T18:22:41.425Z,100991.03
2023-05-18T18:25:08.839Z,100988.19
2023-05-18T18:27:37.466Z,100983.81
2023-05-18T18:30:05.528Z,100985.19
2023-05-18T18:32:33.218Z,100983.53
2023-05-18T18:35:00.804Z,100985.22
2023-05-18T18:37:28.505Z,100984.41
2023-05-18T18:39:55.964Z,100982.03
2023-05-18T18:42:23.460Z,100991.00
2023-05-18T18:44:57.277Z,101000.50
2023-05-18T18:47:25.024Z,100999.56
2023-05-18T18:49:53.528Z,100997.75
2023-05-18T18:52:21.044Z,101004.94
2023-05-18T18:54:48.572Z,101006.03
2023-05-18T18:57:19.203Z,101014.00
2023-05-18T18:59:49.358Z,101010.47
2023-05-18T19:02:18.164Z,101016.50
2023-05-18T19:04:45.700Z,101010.38
2023-05-18T19:07:14.182Z,101023.22
2023-05-18T19:09:41.762Z,101022.22
2023-05-18T19:12:09.465Z,101022.22
2023-05-18T19:14:36.865Z,101024.75
2023-05-18T19:17:04.466Z,101030.09
2023-05-18T19:19:32.739Z,101024.25
2023-05-18T19:22:00.146Z,101039.78
2023-05-18T19:24:28.716Z,101038.63
2023-05-18T19:26:56.883Z,101032.28
2023-05-18T19:29:25.417Z,101036.19
2023-05-18T19:31:55.051Z,101038.69
2023-05-18T19:34:47.106Z,101042.06
2023-05-18T19:37:14.468Z,101044.69
2023-05-18T19:39:42.035Z,101041.47
2023-05-18T19:42:09.587Z,101041.78
2023-05-18T19:44:37.241Z,101054.06
2023-05-18T19:47:06.955Z,101056.00
2023-05-18T19:49:34.758Z,101065.34
2023-05-18T19:52:08.400Z,101056.31
2023-05-18T19:54:36.724Z,101058.91
2023-05-18T19:57:06.496Z,101060.75
2023-05-18T19:59:34.113Z,101062.31
2023-05-18T20:02:07.332Z,101069.19
2023-05-18T20:04:50.320Z,101070.09
2023-05-18T20:07:18.625Z,101068.91
2023-05-18T20:09:46.872Z,101069.53
2023-05-18T20:12:14.458Z,101073.03
2023-05-18T20:14:46.110Z,101078.53
2023-05-18T20:17:14.420Z,101075.25
2023-05-18T20:19:51.156Z,101079.63
2023-05-18T20:22:21.309Z,101083.03
2023-05-18T20:24:49.927Z,101082.53
2023-05-18T20:27:17.836Z,101083.03
2023-05-18T20:29:47.397Z,101083.38
2023-05-18T20:32:22.284Z,101079.84
2023-05-18T20:34:50.798Z,101082.06
2023-05-18T20:37:19.796Z,101085.53
2023-05-18T20:39:51.015Z,101084.22
2023-05-18T20:42:22.632Z,101086.00
2023-05-18T20:44:53.652Z,101086.81
2023-05-18T20:47:21.415Z,101082.41
2023-05-18T20:49:51.812Z,101088.78
2023-05-18T20:52:19.436Z,101081.69
2023-05-18T20:54:47.225Z,101090.31
2023-05-18T20:57:17.995Z,101079.34
2023-05-18T20:59:45.857Z,101083.53
2023-05-18T21:02:13.777Z,101085.84
2023-05-18T21:04:41.746Z,101089.94
2023-05-18T21:07:10.099Z,101088.81
2023-05-18T21:09:37.862Z,101087.91
2023-05-18T21:12:06.000Z,101092.81
2023-05-18T21:14:34.108Z,101088.88
2023-05-18T21:17:04.233Z,101087.78
2023-05-18T21:29:32.134Z,101103.75
2023-05-18T21:41:55.946Z,101094.75
2023-05-18T21:47:00.386Z,101100.00
2023-05-18T21:49:35.707Z,101091.09
2023-05-18T21:55:21.439Z,101095.44
2023-05-18T21:58:05.479Z,101088.06
2023-05-18T22:00:37.857Z,101087.44
2023-05-18T22:03:05.477Z,101094.50
2023-05-18T22:05:33.555Z,101091.34
2023-05-18T22:08:01.305Z,101101.22
2023-05-18T22:10:30.793Z,101089.28
2023-05-18T22:12:58.600Z,101094.34
2023-05-18T22:15:26.427Z,101091.47
2023-05-18T22:18:01.651Z,101093.44
2023-05-18T22:20:29.796Z,101093.69
2023-05-18T22:22:58.374Z,101087.44
2023-05-18T22:25:26.242Z,101098.78
2023-05-18T22:27:54.640Z,101093.69
2023-05-18T22:30:24.147Z,101096.84
2023-05-18T22:32:53.574Z,101100.34
2023-05-18T22:35:21.233Z,101093.41
2023-05-18T22:37:48.703Z,101102.78
2023-05-18T22:40:16.219Z,101100.47
2023-05-18T22:42:43.683Z,101093.19
2023-05-18T22:45:12.560Z,101097.50
2023-05-18T22:47:40.383Z,101094.19
2023-05-18T22:50:08.329Z,101096.34
2023-05-18T22:52:36.952Z,101100.19
2023-05-18T22:55:05.835Z,101104.63
2023-05-18T22:57:35.122Z,101107.34
2023-05-18T23:00:06.409Z,101100.50
2023-05-18T23:02:34.008Z,101097.78
2023-05-18T23:05:01.532Z,101102.00
2023-05-18T23:07:30.648Z,101098.63
2023-05-18T23:10:00.932Z,101095.38
2023-05-18T23:12:30.542Z,101099.31
2023-05-18T23:15:04.330Z,101097.00
2023-05-18T23:17:39.138Z,101082.06
2023-05-18T23:20:06.984Z,101090.41
2023-05-18T23:22:35.065Z,101082.59
2023-05-18T23:25:04.565Z,101100.16
2023-05-18T23:27:32.058Z,101094.94
2023-05-18T23:29:59.419Z,101085.69
2023-05-18T23:32:33.076Z,101086.34
2023-05-18T23:35:01.153Z,101091.56
2023-05-18T23:37:35.735Z,101089.72
2023-05-18T23:40:05.961Z,101090.25
2023-05-18T23:42:36.550Z,101094.44
2023-05-18T23:45:08.000Z,101090.09
2023-05-18T23:47:39.041Z,101089.75
2023-05-18T23:50:08.589Z,101088.53
2023-05-18T23:52:42.340Z,101092.59
2023-05-18T23:55:18.837Z,101090.72
2023-05-18T23:57:47.363Z,101098.75
